Time;durP1;ratioP1;P1;durP2;ratioP2;P2;SDS_P1;SDS_P2;PMS_P1;PMS_P2;Temp;Humidity;BMP_temperature;BMP_pressure;BME280_temperature;BME280_humidity;BME280_pressure;Samples;Min_cycle;Max_cycle;Signal;HPM_P1;HPM_P2
2021/09/13 00:01:08;;;;;;;9.73;8.73;;;;;;;17.54;57.32;94798.56;5033719;28;20867;-80
2021/09/13 00:03:35;;;;;;;9.60;8.47;;;;;;;17.44;58.18;94797.97;5033300;28;20454;-80
2021/09/13 00:06:02;;;;;;;19.27;9.80;;;;;;;17.43;58.41;94791.00;5014724;28;20442;-80
2021/09/13 00:08:29;;;;;;;14.77;10.03;;;;;;;17.38;58.85;94794.19;5033169;28;20959;-80
2021/09/13 00:10:56;;;;;;;12.83;9.93;;;;;;;17.39;58.52;94795.03;5033019;28;20486;-80
2021/09/13 00:13:24;;;;;;;14.23;10.20;;;;;;;17.29;58.69;94790.75;5031170;28;20443;-80
2021/09/13 00:15:51;;;;;;;11.47;9.23;;;;;;;17.27;57.98;94798.03;4998446;28;20806;-80
2021/09/13 00:18:18;;;;;;;14.40;9.93;;;;;;;17.32;58.82;94793.03;5033007;28;20554;-80
2021/09/13 00:20:45;;;;;;;9.90;8.90;;;;;;;17.30;58.04;94792.38;5030945;28;20460;-80
2021/09/13 00:23:12;;;;;;;16.80;10.40;;;;;;;17.32;58.17;94789.56;5030790;28;20823;-80
2021/09/13 00:25:39;;;;;;;11.30;8.53;;;;;;;17.34;58.21;94792.88;5014723;28;20452;-80
2021/09/13 00:28:06;;;;;;;10.50;9.40;;;;;;;17.40;58.47;94796.66;5033003;28;20529;-80
2021/09/13 00:30:35;;;;;;;11.63;9.40;;;;;;;17.43;57.56;94797.16;5032734;28;20483;-80
2021/09/13 00:33:02;;;;;;;9.57;8.20;;;;;;;17.46;57.84;94796.78;5032735;28;20787;-80
2021/09/13 00:35:29;;;;;;;11.77;9.30;;;;;;;17.42;57.46;94797.31;5032995;28;20439;-80
2021/09/13 00:37:56;;;;;;;9.40;8.40;;;;;;;17.42;57.65;94802.63;5032899;28;20460;-80
2021/09/13 00:40:23;;;;;;;11.13;9.20;;;;;;;17.38;57.80;94804.81;5032652;28;20539;-80
2021/09/13 00:42:50;;;;;;;11.90;10.03;;;;;;;17.39;57.60;94809.09;5032716;28;20541;-80
2021/09/13 00:45:18;;;;;;;9.57;8.63;;;;;;;17.34;57.96;94803.47;5032837;28;20453;-80
2021/09/13 00:47:46;;;;;;;14.50;9.10;;;;;;;17.39;58.40;94800.31;5032626;28;20451;-80
2021/09/13 00:50:13;;;;;;;12.97;9.70;;;;;;;17.38;58.51;94804.81;5032801;28;20459;-80
2021/09/13 00:52:42;;;;;;;14.50;10.30;;;;;;;17.45;58.19;94802.28;5032568;28;21033;-80
2021/09/13 00:55:09;;;;;;;10.53;8.37;;;;;;;17.45;58.47;94804.94;5032413;28;20535;-80
2021/09/13 00:57:36;;;;;;;16.77;9.77;;;;;;;17.49;58.92;94804.41;5030326;28;20460;-80
2021/09/13 01:00:06;;;;;;;10.80;9.43;;;;;;;17.45;58.16;94812.88;5032388;28;20458;-80
2021/09/13 01:02:33;;;;;;;11.30;9.30;;;;;;;17.42;58.78;94810.59;4965703;28;20436;-80
2021/09/13 01:05:01;;;;;;;12.87;9.83;;;;;;;17.49;58.42;94812.38;5032669;28;20459;-80
2021/09/13 01:07:30;;;;;;;10.73;9.63;;;;;;;17.52;58.43;94808.53;5030183;28;20438;-80
2021/09/13 01:09:57;;;;;;;13.30;9.53;;;;;;;17.59;58.13;94807.66;5014357;28;20812;-80
2021/09/13 01:12:24;;;;;;;14.23;9.93;;;;;;;17.67;58.49;94813.94;5032233;28;20482;-80
2021/09/13 01:14:51;;;;;;;10.10;9.03;;;;;;;17.71;58.40;94810.78;5032405;28;20438;-79
2021/09/13 01:17:18;;;;;;;10.37;9.37;;;;;;;17.74;58.36;94805.13;5032476;28;20465;-80
2021/09/13 01:19:45;;;;;;;11.27;9.30;;;;;;;17.69;58.63;94823.41;5032440;28;20448;-80
2021/09/13 01:22:15;;;;;;;10.17;8.90;;;;;;;17.64;58.80;94809.81;5032285;28;20453;-80
2021/09/13 01:24:43;;;;;;;9.90;9.00;;;;;;;17.64;58.46;94815.13;5032279;28;20457;-80
2021/09/13 01:27:12;;;;;;;10.13;9.23;;;;;;;17.57;58.46;94808.84;5032269;28;20453;-80
2021/09/13 01:29:40;;;;;;;10.47;9.40;;;;;;;17.51;58.78;94817.50;5032476;28;20445;-80
2021/09/13 01:32:08;;;;;;;12.80;9.80;;;;;;;17.43;58.98;94815.72;5032352;28;20565;-80
2021/09/13 01:34:35;;;;;;;12.20;9.57;;;;;;;17.41;58.94;94814.25;5013952;28;20521;-80
2021/09/13 01:37:02;;;;;;;11.47;9.97;;;;;;;17.33;58.24;94813.25;5032475;28;20521;-80
2021/09/13 01:39:29;;;;;;;12.90;9.73;;;;;;;17.34;58.93;94814.09;5031976;28;20780;-80
2021/09/13 01:41:57;;;;;;;10.53;8.83;;;;;;;17.34;59.17;94812.25;5035187;28;20535;-80
2021/09/13 01:44:24;;;;;;;12.50;10.30;;;;;;;17.28;59.14;94809.47;5036217;28;20466;-80
2021/09/13 01:46:51;;;;;;;15.80;9.60;;;;;;;17.32;58.83;94821.38;5036049;28;20446;-80
2021/09/13 01:49:19;;;;;;;11.20;8.90;;;;;;;17.40;58.91;94820.56;5036345;28;20448;-80
2021/09/13 01:51:46;;;;;;;10.80;9.70;;;;;;;17.44;58.85;94825.34;5035882;28;20845;-80
2021/09/13 01:54:13;;;;;;;11.60;9.17;;;;;;;17.47;58.60;94829.47;5035706;28;20901;-80
2021/09/13 01:56:40;;;;;;;12.20;9.93;;;;;;;17.49;57.99;94835.41;5035727;28;20450;-80
2021/09/13 01:59:08;;;;;;;9.40;8.37;;;;;;;17.43;59.15;94831.63;5035665;28;20453;-80
2021/09/13 02:01:35;;;;;;;12.43;10.20;;;;;;;17.45;58.94;94828.81;5035764;28;20454;-79
2021/09/13 02:04:03;;;;;;;10.40;9.40;;;;;;;17.49;59.20;94827.47;5035644;28;20933;-79
2021/09/13 02:06:31;;;;;;;10.80;9.40;;;;;;;17.52;59.21;94827.94;5035741;28;20449;-80
2021/09/13 02:08:58;;;;;;;12.97;9.50;;;;;;;17.55;58.91;94827.59;5035518;28;20465;-80
2021/09/13 02:11:25;;;;;;;10.83;9.33;;;;;;;17.47;59.27;94826.81;5035498;28;20490;-79
2021/09/13 02:13:52;;;;;;;14.27;9.17;;;;;;;17.42;59.28;94826.50;5035431;28;20450;-80
2021/09/13 02:16:21;;;;;;;11.80;8.93;;;;;;;17.40;59.14;94829.34;5035203;28;20457;-80
2021/09/13 02:18:48;;;;;;;12.50;9.47;;;;;;;17.34;59.61;94828.16;5035633;28;20447;-80
2021/09/13 02:21:15;;;;;;;12.30;8.73;;;;;;;17.34;59.25;94828.16;5035237;28;20458;-80
2021/09/13 02:23:42;;;;;;;10.07;9.03;;;;;;;17.34;59.11;94827.34;5035693;28;20450;-80
2021/09/13 02:26:09;;;;;;;10.20;8.27;;;;;;;17.33;59.12;94828.34;5000156;28;20442;-80
2021/09/13 02:28:36;;;;;;;10.40;9.13;;;;;;;17.36;59.71;94830.69;5016855;28;20440;-80
2021/09/13 02:31:03;;;;;;;16.00;8.77;;;;;;;17.37;59.94;94835.00;5016699;28;20517;-80
2021/09/13 02:33:31;;;;;;;10.90;9.57;;;;;;;17.30;59.53;94839.31;5034934;28;20553;-79
2021/09/13 02:35:58;;;;;;;10.23;9.20;;;;;;;17.22;60.03;94840.16;5034867;28;20536;-80
2021/09/13 02:38:25;;;;;;;11.93;9.10;;;;;;;17.20;60.08;94834.22;5034944;28;20456;-79
2021/09/13 02:40:52;;;;;;;10.90;9.80;;;;;;;17.19;60.41;94839.69;5034719;28;20485;-80
2021/09/13 02:43:19;;;;;;;10.27;8.53;;;;;;;17.19;60.63;94842.34;5016384;28;20445;-80
2021/09/13 02:45:45;;;;;;;10.97;9.87;;;;;;;17.18;60.05;94833.56;5034942;28;20449;-80
2021/09/13 02:48:12;;;;;;;12.73;8.63;;;;;;;17.11;60.68;94832.59;5035091;28;20559;-80
2021/09/13 02:50:41;;;;;;;10.83;9.63;;;;;;;17.09;60.34;94834.59;5034793;28;20891;-80
2021/09/13 02:53:08;;;;;;;12.87;10.43;;;;;;;17.06;60.59;94836.75;5033844;28;20509;-79
2021/09/13 02:55:35;;;;;;;14.50;10.50;;;;;;;16.98;60.92;94830.47;5034729;28;20534;-80
2021/09/13 02:58:02;;;;;;;11.87;9.93;;;;;;;17.00;60.46;94839.09;5034454;28;20447;-80
2021/09/13 03:00:29;;;;;;;11.40;9.20;;;;;;;16.99;60.95;94836.59;5034850;28;20447;-79
2021/09/13 03:02:56;;;;;;;11.07;9.00;;;;;;;17.04;61.24;94839.56;5032423;28;20452;-79
2021/09/13 03:05:23;;;;;;;11.53;9.13;;;;;;;17.02;60.82;94841.56;5034338;28;20445;-79
2021/09/13 03:07:52;;;;;;;10.33;9.13;;;;;;;17.02;61.00;94842.38;5034969;28;20458;-80
2021/09/13 03:10:19;;;;;;;11.77;10.10;;;;;;;17.06;60.89;94847.34;5034467;28;20443;-80
2021/09/13 03:12:46;;;;;;;10.60;9.50;;;;;;;17.08;60.99;94840.91;5065338;28;20481;-79
2021/09/13 03:15:13;;;;;;;12.37;11.10;;;;;;;17.10;60.73;94849.50;5034205;28;20863;-79
2021/09/13 03:17:40;;;;;;;13.30;8.40;;;;;;;17.12;60.39;94847.50;5034266;28;20473;-80
2021/09/13 03:20:08;;;;;;;12.60;9.60;;;;;;;17.12;60.34;94849.34;5034325;28;20810;-80
2021/09/13 03:22:35;;;;;;;10.53;9.50;;;;;;;17.10;61.17;94849.50;5034168;28;20450;-80
2021/09/13 03:25:04;;;;;;;11.80;10.60;;;;;;;16.63;62.28;94852.06;5031919;28;20534;-80
2021/09/13 03:27:31;;;;;;;12.70;9.97;;;;;;;16.39;63.13;94856.38;5034367;28;20547;-80
2021/09/13 03:29:58;;;;;;;14.07;12.20;;;;;;;16.43;64.05;94859.53;5033988;28;20443;-79
2021/09/13 03:32:25;;;;;;;13.77;10.93;;;;;;;16.38;64.08;94860.03;5033808;28;20581;-79
2021/09/13 03:34:52;;;;;;;20.00;11.93;;;;;;;16.36;64.67;94859.38;5033986;28;20452;-79
2021/09/13 03:37:19;;;;;;;11.27;10.07;;;;;;;16.37;63.93;94861.03;5033599;28;20456;-79
2021/09/13 03:39:47;;;;;;;15.40;10.57;;;;;;;16.31;64.82;94859.03;5034161;28;20446;-79
2021/09/13 03:42:16;;;;;;;13.53;12.13;;;;;;;16.31;65.21;94853.75;4999391;28;20839;-79
2021/09/13 03:44:43;;;;;;;12.50;11.27;;;;;;;16.36;64.92;94850.59;5031656;28;20934;-79
2021/09/13 03:47:09;;;;;;;13.03;11.40;;;;;;;16.41;64.95;94861.50;5033703;28;20524;-80
2021/09/13 03:49:36;;;;;;;15.00;10.97;;;;;;;16.49;63.97;94866.00;5033693;28;20445;-79
2021/09/13 03:52:07;;;;;;;12.17;9.97;;;;;;;16.54;64.37;94861.03;5033937;28;20486;-79
2021/09/13 03:54:35;;;;;;;11.50;10.30;;;;;;;16.61;63.71;94869.94;5033840;28;20472;-80
2021/09/13 03:57:02;;;;;;;13.10;11.50;;;;;;;16.69;63.72;94864.66;5033430;28;21018;-79
2021/09/13 03:59:30;;;;;;;16.63;11.23;;;;;;;16.72;63.54;94867.81;5033886;28;20847;-80
2021/09/13 04:01:58;;;;;;;14.53;10.27;;;;;;;16.78;62.58;94860.19;5033668;28;20457;-79
2021/09/13 04:04:27;;;;;;;14.90;11.40;;;;;;;16.77;63.40;94866.47;5014232;28;20848;-79
2021/09/13 04:06:56;;;;;;;16.20;12.30;;;;;;;16.80;63.41;94869.63;5033248;28;20440;-79
2021/09/13 04:12:19;;;;;;;16.13;10.53;;;;;;;16.72;62.94;94878.41;5033265;28;20485;-80
2021/09/13 04:14:47;;;;;;;13.20;11.90;;;;;;;16.69;63.58;94878.75;5014699;28;20531;-79
2021/09/13 04:17:14;;;;;;;13.40;10.50;;;;;;;16.67;63.33;94879.91;5014700;28;20550;-80
2021/09/13 04:19:42;;;;;;;14.67;11.70;;;;;;;16.72;63.70;94874.94;5033038;28;20475;-80
2021/09/13 04:22:10;;;;;;;17.27;11.80;;;;;;;16.86;63.79;94884.03;5032956;28;20452;-79
2021/09/13 04:24:37;;;;;;;12.83;11.13;;;;;;;17.01;63.20;94880.50;5033165;28;20448;-80
2021/09/13 04:27:04;;;;;;;18.07;12.07;;;;;;;17.22;62.71;94884.44;5032877;28;21010;-80
2021/09/13 04:29:31;;;;;;;13.83;11.30;;;;;;;17.41;62.65;94885.88;5032804;28;20446;-80
2021/09/13 04:32:00;;;;;;;13.20;11.10;;;;;;;17.55;61.34;94887.78;5032559;28;20522;-79
2021/09/13 04:34:27;;;;;;;20.90;11.30;;;;;;;17.64;61.25;94894.72;5032992;28;20446;-80
2021/09/13 04:36:54;;;;;;;14.90;11.17;;;;;;;17.70;60.88;94893.22;5032781;28;20831;-80
2021/09/13 04:39:21;;;;;;;12.10;10.87;;;;;;;17.78;60.45;94893.19;5030636;28;20433;-79
2021/09/13 04:41:47;;;;;;;11.33;10.20;;;;;;;17.86;60.20;94890.47;5032802;28;20540;-79
2021/09/13 04:44:14;;;;;;;12.60;10.17;;;;;;;17.92;60.21;94895.91;5032931;28;20462;-80
2021/09/13 04:46:41;;;;;;;12.97;11.00;;;;;;;17.86;59.87;94896.63;5033076;28;20865;-79
2021/09/13 04:49:10;;;;;;;12.90;10.93;;;;;;;17.94;59.57;94896.59;5032413;28;20927;-80
2021/09/13 04:51:37;;;;;;;13.13;10.50;;;;;;;17.99;59.92;94887.28;5032473;28;20541;-80
2021/09/13 04:54:04;;;;;;;19.13;10.00;;;;;;;18.13;59.40;94891.81;5032319;28;20471;-80
2021/09/13 04:56:31;;;;;;;11.63;10.50;;;;;;;18.38;58.70;94900.44;4998010;28;20451;-80
2021/09/13 04:58:58;;;;;;;12.50;9.77;;;;;;;18.58;58.18;94901.63;5032308;28;20538;-80
2021/09/13 05:01:25;;;;;;;15.33;11.00;;;;;;;18.90;56.98;94903.19;5032528;28;20525;-80
2021/09/13 05:03:52;;;;;;;12.10;10.90;;;;;;;19.19;56.15;94899.75;5032419;28;20974;-80
2021/09/13 05:06:20;;;;;;;15.60;11.43;;;;;;;19.54;55.36;94894.72;5032664;28;20541;-80
2021/09/13 05:08:47;;;;;;;25.03;13.70;;;;;;;19.68;54.10;94900.06;5032294;28;20815;-80
2021/09/13 05:11:14;;;;;;;13.03;11.67;;;;;;;19.70;54.23;94903.34;5032599;28;20445;-80
2021/09/13 05:13:41;;;;;;;11.93;10.33;;;;;;;19.77;54.03;94912.25;5032067;28;21019;-80
2021/09/13 05:16:08;;;;;;;16.23;11.37;;;;;;;19.90;53.65;94916.06;5035792;28;20456;-80
2021/09/13 05:18:35;;;;;;;14.30;11.40;;;;;;;20.08;53.18;94913.84;5038972;28;20448;-80
2021/09/13 05:21:02;;;;;;;15.60;11.77;;;;;;;20.29;53.27;94911.22;5039065;28;20528;-80
2021/09/13 05:23:31;;;;;;;13.37;12.07;;;;;;;20.58;52.45;94914.81;5038960;28;20445;-80
2021/09/13 05:25:58;;;;;;;13.20;11.90;;;;;;;20.92;52.10;94920.22;5038885;28;20457;-80
2021/09/13 05:28:24;;;;;;;17.47;12.57;;;;;;;21.20;51.25;94916.75;5039074;28;20446;-80
2021/09/13 05:30:51;;;;;;;15.43;12.40;;;;;;;21.39;50.08;94923.25;5038775;28;20447;-80
2021/09/13 05:33:18;;;;;;;13.97;11.53;;;;;;;21.58;49.87;94918.03;5038792;28;20499;-80
2021/09/13 05:35:45;;;;;;;16.83;14.20;;;;;;;21.80;49.19;94925.97;5039260;28;20531;-80
2021/09/13 05:38:12;;;;;;;16.23;11.50;;;;;;;22.01;48.64;94919.69;5038635;28;20543;-80
2021/09/13 05:40:43;;;;;;;13.83;12.33;;;;;;;22.13;47.87;94916.28;5038744;28;20443;-80
2021/09/13 05:43:10;;;;;;;13.33;11.37;;;;;;;22.37;47.82;94927.44;5038409;28;20483;-80
2021/09/13 05:45:38;;;;;;;11.47;10.30;;;;;;;22.48;46.97;94924.19;5038576;28;20459;-80
2021/09/13 05:48:06;;;;;;;10.23;9.33;;;;;;;22.61;46.39;94926.91;5038634;28;20447;-80
2021/09/13 05:50:33;;;;;;;18.00;16.20;;;;;;;22.71;46.10;94923.81;5038922;28;20536;-80
2021/09/13 05:53:00;;;;;;;15.73;10.77;;;;;;;23.00;46.05;94925.31;5038233;28;20968;-80
2021/09/13 05:55:27;;;;;;;12.40;10.60;;;;;;;23.25;45.63;94926.34;5038345;28;20448;-80
2021/09/13 05:57:55;;;;;;;13.10;11.17;;;;;;;23.37;44.94;94919.31;5020138;28;20451;-80
2021/09/13 06:00:22;;;;;;;13.10;11.00;;;;;;;23.44;44.38;94917.47;5019869;28;20453;-80
2021/09/13 06:02:49;;;;;;;11.57;10.20;;;;;;;23.51;44.43;94919.31;5038300;28;20446;-80
2021/09/13 06:05:16;;;;;;;15.87;10.90;;;;;;;23.64;45.01;94913.94;5038493;28;20532;-80
2021/09/13 06:07:43;;;;;;;16.37;10.90;;;;;;;23.88;44.35;94921.28;5038188;28;20459;-81
2021/09/13 06:10:11;;;;;;;12.67;9.80;;;;;;;23.94;43.76;94914.25;5019810;28;20468;-80
2021/09/13 06:12:38;;;;;;;12.93;11.50;;;;;;;23.95;43.18;94919.41;5038218;28;20839;-80
2021/09/13 06:15:08;;;;;;;13.00;10.90;;;;;;;24.01;44.02;94915.91;5036166;28;20440;-80
2021/09/13 06:17:35;;;;;;;14.30;11.30;;;;;;;24.16;43.27;94918.28;5019689;28;20457;-80
2021/09/13 06:20:04;;;;;;;12.90;10.03;;;;;;;24.09;42.83;94918.34;5038128;28;20448;-80
2021/09/13 06:22:31;;;;;;;12.30;11.07;;;;;;;24.15;42.61;94916.66;5038261;28;20517;-80
2021/09/13 06:24:58;;;;;;;16.63;11.87;;;;;;;24.40;43.14;94919.47;5037969;28;20532;-80
2021/09/13 06:27:26;;;;;;;19.00;11.33;;;;;;;24.30;42.82;94924.47;5035826;28;20449;-80
2021/09/13 06:29:53;;;;;;;12.73;11.03;;;;;;;24.07;43.44;94923.09;5035107;28;20562;-80
2021/09/13 06:32:21;;;;;;;13.70;10.37;;;;;;;24.16;44.08;94920.16;5034833;28;20448;-80
2021/09/13 06:34:48;;;;;;;19.07;11.70;;;;;;;23.93;43.77;94924.16;5034860;28;20962;-80
2021/09/13 06:37:15;;;;;;;24.53;12.90;;;;;;;23.18;46.33;94931.69;5034744;28;20535;-80
2021/09/13 06:39:42;;;;;;;23.17;12.77;;;;;;;23.21;47.10;94930.47;5034804;28;20926;-80
2021/09/13 06:42:09;;;;;;;19.40;11.03;;;;;;;23.33;46.65;94920.75;5036041;28;20520;-80
2021/09/13 06:44:37;;;;;;;18.83;12.00;;;;;;;23.43;46.05;94931.91;5035680;28;20984;-81
2021/09/13 06:47:07;;;;;;;17.83;12.43;;;;;;;23.66;45.32;94936.81;5017772;28;20446;-81
2021/09/13 06:49:36;;;;;;;20.77;12.43;;;;;;;23.85;44.68;94921.72;5035793;28;20443;-81
2021/09/13 06:52:05;;;;;;;17.37;12.30;;;;;;;23.61;45.40;94930.44;5035602;28;20509;-82
2021/09/13 06:54:32;;;;;;;14.83;12.40;;;;;;;23.46;46.02;94928.78;5035463;28;20536;-80
2021/09/13 06:57:01;;;;;;;13.77;11.03;;;;;;;23.29;45.54;94932.91;5035804;28;20456;-81
2021/09/13 06:59:28;;;;;;;26.03;12.67;;;;;;;23.41;46.54;94936.59;5035743;28;20450;-80
2021/09/13 07:01:55;;;;;;;12.93;11.50;;;;;;;23.23;45.96;94939.13;5036184;28;20464;-80
2021/09/13 07:04:23;;;;;;;16.50;12.73;;;;;;;23.18;45.82;94930.88;5035175;28;21019;-80
2021/09/13 07:06:52;;;;;;;20.27;12.13;;;;;;;22.81;45.33;94932.28;5016809;28;20463;-80
2021/09/13 07:09:20;;;;;;;14.77;11.40;;;;;;;22.67;47.44;94938.63;5035771;28;20453;-80
2021/09/13 07:11:47;;;;;;;14.00;12.50;;;;;;;22.90;45.72;94941.78;5017181;28;20821;-80
2021/09/13 07:14:14;;;;;;;24.80;12.33;;;;;;;23.24;45.51;94946.13;5017187;28;20568;-80
2021/09/13 07:20:02;;;;;;;17.70;11.50;;;;;;;23.76;43.95;94934.53;5034218;28;20463;-80
2021/09/13 07:22:31;;;;;;;15.30;12.63;;;;;;;24.17;44.02;94935.22;5016766;28;20501;-80
2021/09/13 07:24:58;;;;;;;16.60;11.37;;;;;;;24.42;43.41;94938.03;5034039;28;20454;-81
2021/09/13 07:27:25;;;;;;;16.27;11.57;;;;;;;24.31;43.78;94929.63;5034073;28;20454;-81
2021/09/13 07:29:53;;;;;;;13.63;11.90;;;;;;;24.44;42.23;94935.94;5034289;28;20530;-81
2021/09/13 07:32:20;;;;;;;18.13;12.93;;;;;;;24.52;42.47;94931.13;5015508;28;20444;-80
2021/09/13 07:34:46;;;;;;;17.27;12.33;;;;;;;24.61;43.23;94931.72;5034021;28;20458;-80
2021/09/13 07:37:14;;;;;;;18.07;11.77;;;;;;;24.90;42.73;94933.81;5034608;28;21002;-80
2021/09/13 07:39:42;;;;;;;17.03;12.20;;;;;;;25.21;41.81;94932.16;5034278;28;20485;-80
2021/09/13 07:42:10;;;;;;;14.67;11.63;;;;;;;25.59;40.94;94929.31;5033702;28;20535;-80
2021/09/13 07:44:37;;;;;;;17.10;10.87;;;;;;;25.86;40.34;94936.09;5034091;28;20455;-80
2021/09/13 07:47:04;;;;;;;19.07;12.23;;;;;;;26.10;40.62;94936.25;5033574;28;20445;-80
2021/09/13 07:49:31;;;;;;;14.83;10.40;;;;;;;26.17;40.45;94934.31;5033932;28;20930;-81
2021/09/13 07:51:58;;;;;;;12.07;10.73;;;;;;;26.41;40.12;94936.09;5033343;28;20938;-81
2021/09/13 07:54:25;;;;;;;16.63;12.30;;;;;;;25.76;40.53;94933.13;5033779;28;20494;-81
2021/09/13 07:56:53;;;;;;;14.50;12.10;;;;;;;25.55;40.94;94941.56;5033280;28;20439;-81
2021/09/13 07:59:20;;;;;;;18.37;12.03;;;;;;;25.39;41.40;94936.75;5014924;28;20452;-81
2021/09/13 08:01:47;;;;;;;17.73;13.17;;;;;;;25.48;42.08;94933.56;5033635;28;20526;-81
2021/09/13 08:04:14;;;;;;;13.70;11.67;;;;;;;25.35;41.54;94936.38;5032919;28;20456;-80
2021/09/13 08:06:41;;;;;;;17.03;11.97;;;;;;;25.31;41.87;94933.28;5033938;28;20526;-80
2021/09/13 08:09:08;;;;;;;16.97;12.27;;;;;;;25.50;42.59;94926.13;5015996;28;20445;-80
2021/09/13 08:11:35;;;;;;;16.00;12.83;;;;;;;25.71;42.73;94924.88;5034142;28;20879;-80
2021/09/13 08:14:04;;;;;;;17.17;12.63;;;;;;;25.73;41.59;94936.22;5034161;28;21024;-81
2021/09/13 08:16:31;;;;;;;19.47;12.47;;;;;;;25.74;42.38;94931.69;5034079;28;20941;-81
2021/09/13 08:19:00;;;;;;;17.00;12.40;;;;;;;25.79;41.46;94931.84;5033857;28;20443;-81
2021/09/13 08:21:27;;;;;;;15.30;12.77;;;;;;;25.81;42.73;94927.91;5034398;28;20897;-81
2021/09/13 08:23:55;;;;;;;20.33;13.63;;;;;;;25.93;42.49;94931.47;5034162;28;20441;-83
2021/09/13 08:26:23;;;;;;;18.33;14.20;;;;;;;25.65;41.57;94933.81;5034035;28;20464;-81
2021/09/13 08:28:50;;;;;;;19.70;13.43;;;;;;;25.45;42.64;94938.56;5033741;28;20537;-82
2021/09/13 08:31:18;;;;;;;18.47;14.93;;;;;;;25.43;42.26;94924.50;5034106;28;20455;-81
2021/09/13 08:33:45;;;;;;;23.13;14.70;;;;;;;25.63;41.30;94925.16;5033536;28;20568;-81
2021/09/13 08:36:13;;;;;;;18.40;13.80;;;;;;;25.86;41.64;94928.03;5033983;28;20793;-83
2021/09/13 08:38:40;;;;;;;32.43;14.57;;;;;;;26.00;41.48;94920.63;5015753;28;20540;-85
2021/09/13 08:41:07;;;;;;;26.27;17.13;;;;;;;25.87;41.47;94923.47;4999127;28;20466;-80
2021/09/13 08:43:34;;;;;;;21.20;13.30;;;;;;;25.84;42.13;94921.25;5033999;28;20441;-80
2021/09/13 08:46:05;;;;;;;26.13;16.03;;;;;;;25.96;41.95;94913.25;5033697;28;20441;-80
2021/09/13 08:48:37;;;;;;;20.53;16.40;;;;;;;26.05;41.17;94911.91;5033823;28;20531;-80
2021/09/13 08:51:06;;;;;;;19.63;13.80;;;;;;;26.12;42.09;94908.09;5033527;28;20439;-80
2021/09/13 08:53:36;;;;;;;19.00;14.87;;;;;;;26.34;39.67;94908.47;4998735;28;20490;-80
2021/09/13 08:56:04;;;;;;;24.33;15.00;;;;;;;26.40;40.09;94912.94;5033923;28;20435;-80
2021/09/13 08:58:34;;;;;;;24.00;16.07;;;;;;;26.55;39.75;94912.50;5031769;28;20482;-80
2021/09/13 09:01:01;;;;;;;20.20;15.83;;;;;;;26.71;39.78;94908.38;5033305;28;20517;-80
2021/09/13 09:03:29;;;;;;;21.87;15.57;;;;;;;26.88;39.63;94903.13;5033112;28;20964;-81
2021/09/13 09:05:58;;;;;;;19.83;14.43;;;;;;;26.95;38.67;94901.19;5033340;28;21013;-80
2021/09/13 09:08:26;;;;;;;18.77;15.50;;;;;;;27.00;39.08;94899.47;4995167;28;20446;-80
2021/09/13 09:10:55;;;;;;;19.90;14.70;;;;;;;27.11;37.75;94901.34;5013387;28;20435;-81
2021/09/13 09:13:23;;;;;;;22.30;16.07;;;;;;;27.14;38.92;94898.19;5013194;28;20471;-81
2021/09/13 09:15:57;;;;;;;22.73;13.83;;;;;;;27.28;39.60;94897.97;4995540;28;20799;-80
2021/09/13 09:18:25;;;;;;;27.10;16.03;;;;;;;27.36;38.20;94892.22;5013282;28;20846;-81
2021/09/13 09:20:52;;;;;;;24.58;16.40;;;;;;;27.55;37.22;94893.75;5012368;28;20450;-81
2021/09/13 09:23:21;;;;;;;21.63;13.27;;;;;;;27.40;35.77;94886.13;5013614;28;20197;-80
2021/09/13 09:25:48;;;;;;;22.37;13.83;;;;;;;27.34;34.91;94887.06;5013557;28;20507;-81
2021/09/13 09:28:16;;;;;;;13.67;10.90;;;;;;;27.27;33.40;94889.06;5013595;28;20455;-81
2021/09/13 09:30:45;;;;;;;16.93;11.97;;;;;;;27.17;34.27;94892.31;5013137;28;20787;-81
2021/09/13 09:33:14;;;;;;;15.33;12.37;;;;;;;27.24;35.73;94886.03;5014272;28;20472;-81
2021/09/13 09:35:43;;;;;;;13.00;11.80;;;;;;;27.27;33.89;94885.56;5013408;28;20451;-81
2021/09/13 09:38:29;;;;;;;15.07;11.60;;;;;;;27.24;34.14;94880.63;5013425;28;20517;-81
2021/09/13 09:41:04;;;;;;;15.43;11.07;;;;;;;27.28;34.86;94877.22;5013171;28;20432;-81
2021/09/13 09:43:32;;;;;;;15.57;11.43;;;;;;;27.28;34.26;94874.53;5012050;28;20542;-81
2021/09/13 09:46:00;;;;;;;16.17;13.30;;;;;;;27.38;34.82;94879.34;5012119;28;20455;-81
2021/09/13 09:48:33;;;;;;;15.83;10.90;;;;;;;27.48;34.13;94876.06;5012427;28;20534;-81
2021/09/13 09:51:00;;;;;;;15.60;10.70;;;;;;;27.44;34.30;94875.69;5012167;28;20455;-81
2021/09/13 09:53:40;;;;;;;12.00;10.23;;;;;;;27.35;31.67;94880.63;5011904;28;20487;-81
2021/09/13 09:56:13;;;;;;;15.30;10.10;;;;;;;27.39;32.17;94867.50;5011745;28;20455;-81
2021/09/13 09:59:02;;;;;;;14.30;10.30;;;;;;;27.41;32.00;94873.47;5012079;28;20448;-81
2021/09/13 10:01:39;;;;;;;15.10;10.50;;;;;;;27.27;33.29;94866.69;5010926;28;20865;-81
2021/09/13 10:04:14;;;;;;;15.60;9.60;;;;;;;26.67;34.33;94867.63;5015342;28;20455;-81
2021/09/13 10:06:42;;;;;;;13.03;9.63;;;;;;;26.79;32.14;94873.84;5015762;28;20446;-81
2021/09/13 10:09:12;;;;;;;11.87;8.87;;;;;;;26.88;33.83;94863.56;5013691;28;20447;-81
2021/09/13 10:11:40;;;;;;;15.10;10.23;;;;;;;26.70;32.96;94867.16;4980909;28;20526;-81
2021/09/13 10:14:10;;;;;;;10.83;9.63;;;;;;;26.60;34.82;94860.69;5015429;28;20487;-81
2021/09/13 10:16:39;;;;;;;17.27;10.27;;;;;;;26.58;34.55;94860.09;5019294;28;20820;-81
2021/09/13 10:19:06;;;;;;;14.93;9.47;;;;;;;26.37;34.56;94862.28;5015781;28;20528;-81
2021/09/13 10:21:33;;;;;;;13.87;9.93;;;;;;;26.23;34.45;94855.38;5015389;28;20475;-82
2021/09/13 10:24:02;;;;;;;13.93;9.40;;;;;;;26.41;34.80;94851.88;5015274;28;20534;-81
2021/09/13 10:26:30;;;;;;;13.33;10.53;;;;;;;26.54;33.62;94851.66;5015590;28;20443;-81
2021/09/13 10:29:17;;;;;;;14.20;9.30;;;;;;;26.70;33.86;94851.00;5015075;28;20447;-81
2021/09/13 10:32:05;;;;;;;12.07;10.47;;;;;;;26.81;35.10;94846.69;5015308;28;20502;-81
2021/09/13 10:34:35;;;;;;;10.90;9.60;;;;;;;26.89;35.95;94850.91;5015091;28;20843;-81
2021/09/13 10:37:11;;;;;;;13.30;10.30;;;;;;;27.01;36.06;94844.53;5015582;28;20448;-81
2021/09/13 10:40:01;;;;;;;11.53;9.17;;;;;;;26.95;32.82;94848.13;5015358;28;20447;-81
2021/09/13 10:42:45;;;;;;;19.07;10.77;;;;;;;26.78;33.43;94842.59;5015328;28;20454;-81
2021/09/13 10:45:24;;;;;;;14.83;10.00;;;;;;;26.88;33.72;94839.31;4935375;29;20513;-81
2021/09/13 10:48:02;;;;;;;14.53;8.93;;;;;;;26.81;34.15;94841.31;4903471;29;20451;-81
2021/09/13 10:50:36;;;;;;;9.60;7.93;;;;;;;26.90;34.68;94834.53;4935199;29;20944;-81
2021/09/13 10:53:05;;;;;;;10.73;9.27;;;;;;;26.83;33.63;94840.03;4934879;29;20553;-81
2021/09/13 10:55:38;;;;;;;12.30;9.80;;;;;;;26.86;34.29;94836.03;4935094;29;20872;-81
2021/09/13 10:58:11;;;;;;;13.60;9.43;;;;;;;26.76;35.16;94841.19;4935060;29;20821;-81
2021/09/13 11:00:58;;;;;;;10.77;9.60;;;;;;;26.66;34.52;94827.47;4935007;29;21000;-81
2021/09/13 11:03:48;;;;;;;14.10;9.70;;;;;;;26.74;34.73;94830.66;4918845;29;20571;-81
2021/09/13 11:06:47;;;;;;;10.40;9.30;;;;;;;26.81;34.12;94827.84;4935131;29;20485;-81
2021/09/13 11:09:22;;;;;;;11.23;9.73;;;;;;;26.85;34.94;94826.31;4934976;29;20534;-81
2021/09/13 11:11:56;;;;;;;9.80;8.87;;;;;;;26.94;34.97;94826.81;4934865;29;20458;-81
2021/09/13 11:14:26;;;;;;;9.60;8.70;;;;;;;26.97;34.32;94824.47;4934011;29;20483;-81
2021/09/13 11:16:55;;;;;;;12.70;8.63;;;;;;;27.07;33.79;94821.22;4918603;29;20997;-81
2021/09/13 11:19:23;;;;;;;9.40;8.47;;;;;;;26.78;34.03;94823.75;4934816;29;21249;-81
2021/09/13 11:21:51;;;;;;;10.63;9.53;;;;;;;26.94;34.98;94819.56;4950976;28;20952;-81
2021/09/13 11:24:19;;;;;;;9.03;8.27;;;;;;;27.07;35.38;94821.22;5014463;28;20490;-81
2021/09/13 11:26:48;;;;;;;11.43;8.97;;;;;;;26.96;34.13;94822.84;4980019;28;20947;-81
2021/09/13 11:29:17;;;;;;;9.80;8.60;;;;;;;26.62;34.97;94815.53;5014084;28;20530;-81
2021/09/13 11:31:47;;;;;;;10.53;9.43;;;;;;;26.52;33.74;94816.91;5014314;28;20444;-81
2021/09/13 11:34:32;;;;;;;10.53;9.37;;;;;;;26.70;34.37;94807.94;5014088;28;20845;-81